sensor_id;sensor_type;location;lat;lon;timestamp;P1;durP1;ratioP1;P2;durP2;ratioP2
28766;SDS011;15921;52.034;20.650;2023-04-03T00:01:12;5.80;;;2.10;;
28766;SDS011;15921;52.034;20.650;2023-04-03T00:03:38;4.40;;;1.63;;
28766;SDS011;15921;52.034;20.650;2023-04-03T00:06:04;9.38;;;2.15;;
28766;SDS011;15921;52.034;20.650;2023-04-03T00:08:32;6.05;;;2.38;;
28766;SDS011;15921;52.034;20.650;2023-04-03T00:10:58;5.95;;;1.90;;
28766;SDS011;15921;52.034;20.650;2023-04-03T00:13:24;4.50;;;1.80;;
28766;SDS011;15921;52.034;20.650;2023-04-03T00:15:50;4.68;;;1.95;;
28766;SDS011;15921;52.034;20.650;2023-04-03T00:18:17;6.63;;;2.15;;
28766;SDS011;15921;52.034;20.650;2023-04-03T00:20:43;5.38;;;2.20;;
28766;SDS011;15921;52.034;20.650;2023-04-03T00:23:09;7.70;;;2.58;;
28766;SDS011;15921;52.034;20.650;2023-04-03T00:25:35;5.78;;;1.95;;
28766;SDS011;15921;52.034;20.650;2023-04-03T00:28:01;5.80;;;1.83;;
28766;SDS011;15921;52.034;20.650;2023-04-03T00:30:28;5.07;;;2.20;;
28766;SDS011;15921;52.034;20.650;2023-04-03T00:32:53;4.60;;;1.88;;
28766;SDS011;15921;52.034;20.650;2023-04-03T00:35:20;4.15;;;1.63;;
28766;SDS011;15921;52.034;20.650;2023-04-03T00:37:46;6.30;;;2.15;;
28766;SDS011;15921;52.034;20.650;2023-04-03T00:40:13;9.40;;;2.20;;
28766;SDS011;15921;52.034;20.650;2023-04-03T00:42:40;6.13;;;2.10;;
28766;SDS011;15921;52.034;20.650;2023-04-03T00:45:50;6.05;;;1.92;;
28766;SDS011;15921;52.034;20.650;2023-04-03T00:47:58;8.02;;;2.00;;
28766;SDS011;15921;52.034;20.650;2023-04-03T00:50:27;9.13;;;2.63;;
28766;SDS011;15921;52.034;20.650;2023-04-03T00:52:54;5.85;;;1.95;;
28766;SDS011;15921;52.034;20.650;2023-04-03T00:55:21;6.22;;;2.05;;
28766;SDS011;15921;52.034;20.650;2023-04-03T00:57:48;6.68;;;2.05;;
28766;SDS011;15921;52.034;20.650;2023-04-03T01:00:15;6.88;;;2.60;;
28766;SDS011;15921;52.034;20.650;2023-04-03T01:02:43;7.70;;;1.92;;
28766;SDS011;15921;52.034;20.650;2023-04-03T01:05:10;6.90;;;1.92;;
28766;SDS011;15921;52.034;20.650;2023-04-03T01:07:36;5.85;;;1.80;;
28766;SDS011;15921;52.034;20.650;2023-04-03T01:10:05;6.78;;;2.42;;
28766;SDS011;15921;52.034;20.650;2023-04-03T01:12:36;4.97;;;1.75;;
28766;SDS011;15921;52.034;20.650;2023-04-03T01:15:07;5.32;;;1.80;;
28766;SDS011;15921;52.034;20.650;2023-04-03T01:17:47;3.85;;;1.52;;
28766;SDS011;15921;52.034;20.650;2023-04-03T01:25:57;6.93;;;2.28;;
28766;SDS011;15921;52.034;20.650;2023-04-03T01:28:23;7.85;;;2.20;;
28766;SDS011;15921;52.034;20.650;2023-04-03T01:30:55;4.40;;;1.67;;
28766;SDS011;15921;52.034;20.650;2023-04-03T01:33:27;3.95;;;1.85;;
28766;SDS011;15921;52.034;20.650;2023-04-03T01:35:52;7.70;;;2.25;;
28766;SDS011;15921;52.034;20.650;2023-04-03T01:38:18;8.90;;;2.22;;
28766;SDS011;15921;52.034;20.650;2023-04-03T01:40:44;4.45;;;1.63;;
28766;SDS011;15921;52.034;20.650;2023-04-03T01:43:09;4.80;;;1.73;;
28766;SDS011;15921;52.034;20.650;2023-04-03T01:45:35;6.32;;;1.92;;
28766;SDS011;15921;52.034;20.650;2023-04-03T01:48:01;6.57;;;2.10;;
28766;SDS011;15921;52.034;20.650;2023-04-03T01:50:27;5.00;;;1.70;;
28766;SDS011;15921;52.034;20.650;2023-04-03T01:52:53;4.38;;;1.85;;
28766;SDS011;15921;52.034;20.650;2023-04-03T01:55:18;7.07;;;2.92;;
28766;SDS011;15921;52.034;20.650;2023-04-03T01:57:44;4.80;;;1.83;;
28766;SDS011;15921;52.034;20.650;2023-04-03T02:00:10;6.60;;;1.90;;
28766;SDS011;15921;52.034;20.650;2023-04-03T02:02:37;6.97;;;2.00;;
28766;SDS011;15921;52.034;20.650;2023-04-03T02:05:02;5.50;;;1.70;;
28766;SDS011;15921;52.034;20.650;2023-04-03T02:07:28;5.10;;;1.60;;
28766;SDS011;15921;52.034;20.650;2023-04-03T02:09:54;6.13;;;1.70;;
28766;SDS011;15921;52.034;20.650;2023-04-03T02:12:20;4.13;;;2.20;;
28766;SDS011;15921;52.034;20.650;2023-04-03T02:14:46;4.93;;;1.52;;
28766;SDS011;15921;52.034;20.650;2023-04-03T02:17:11;3.15;;;1.67;;
28766;SDS011;15921;52.034;20.650;2023-04-03T02:19:37;8.70;;;2.00;;
28766;SDS011;15921;52.034;20.650;2023-04-03T02:22:03;5.95;;;1.95;;
28766;SDS011;15921;52.034;20.650;2023-04-03T02:24:29;4.82;;;1.77;;
28766;SDS011;15921;52.034;20.650;2023-04-03T02:26:56;4.13;;;1.55;;
28766;SDS011;15921;52.034;20.650;2023-04-03T02:29:22;4.60;;;1.63;;
28766;SDS011;15921;52.034;20.650;2023-04-03T02:31:48;7.80;;;1.77;;
28766;SDS011;15921;52.034;20.650;2023-04-03T02:34:15;5.43;;;1.77;;
28766;SDS011;15921;52.034;20.650;2023-04-03T02:36:41;3.35;;;1.75;;
28766;SDS011;15921;52.034;20.650;2023-04-03T02:39:07;3.60;;;1.75;;
28766;SDS011;15921;52.034;20.650;2023-04-03T02:41:33;3.88;;;1.73;;
28766;SDS011;15921;52.034;20.650;2023-04-03T02:44:01;7.05;;;1.85;;
28766;SDS011;15921;52.034;20.650;2023-04-03T02:46:28;5.20;;;1.52;;
28766;SDS011;15921;52.034;20.650;2023-04-03T02:48:54;5.88;;;2.08;;
28766;SDS011;15921;52.034;20.650;2023-04-03T02:51:19;5.25;;;2.03;;
28766;SDS011;15921;52.034;20.650;2023-04-03T02:53:45;5.03;;;1.63;;
28766;SDS011;15921;52.034;20.650;2023-04-03T02:56:11;8.50;;;2.00;;
28766;SDS011;15921;52.034;20.650;2023-04-03T02:58:36;6.82;;;2.15;;
28766;SDS011;15921;52.034;20.650;2023-04-03T03:01:02;4.65;;;1.90;;
28766;SDS011;15921;52.034;20.650;2023-04-03T03:03:28;5.88;;;1.60;;
28766;SDS011;15921;52.034;20.650;2023-04-03T03:06:03;5.45;;;1.45;;
28766;SDS011;15921;52.034;20.650;2023-04-03T03:08:34;3.60;;;1.60;;
28766;SDS011;15921;52.034;20.650;2023-04-03T03:11:00;4.05;;;1.80;;
28766;SDS011;15921;52.034;20.650;2023-04-03T03:13:27;5.70;;;2.10;;
28766;SDS011;15921;52.034;20.650;2023-04-03T03:15:52;4.15;;;1.50;;
28766;SDS011;15921;52.034;20.650;2023-04-03T03:18:18;5.90;;;1.92;;
28766;SDS011;15921;52.034;20.650;2023-04-03T03:20:44;4.85;;;1.65;;
28766;SDS011;15921;52.034;20.650;2023-04-03T03:23:10;6.15;;;1.65;;
28766;SDS011;15921;52.034;20.650;2023-04-03T03:25:39;4.60;;;2.08;;
28766;SDS011;15921;52.034;20.650;2023-04-03T03:28:05;5.55;;;2.08;;
28766;SDS011;15921;52.034;20.650;2023-04-03T03:30:32;4.35;;;1.38;;
28766;SDS011;15921;52.034;20.650;2023-04-03T03:32:57;5.43;;;1.60;;
28766;SDS011;15921;52.034;20.650;2023-04-03T03:35:23;4.25;;;1.50;;
28766;SDS011;15921;52.034;20.650;2023-04-03T03:37:49;7.30;;;1.67;;
28766;SDS011;15921;52.034;20.650;2023-04-03T03:40:15;3.30;;;1.35;;
28766;SDS011;15921;52.034;20.650;2023-04-03T03:42:40;4.80;;;2.03;;
28766;SDS011;15921;52.034;20.650;2023-04-03T03:45:06;2.63;;;1.45;;
28766;SDS011;15921;52.034;20.650;2023-04-03T03:47:33;8.20;;;1.80;;
28766;SDS011;15921;52.034;20.650;2023-04-03T03:49:58;5.45;;;2.17;;
28766;SDS011;15921;52.034;20.650;2023-04-03T03:52:24;6.53;;;1.70;;
28766;SDS011;15921;52.034;20.650;2023-04-03T03:54:50;6.40;;;1.70;;
28766;SDS011;15921;52.034;20.650;2023-04-03T03:57:16;9.00;;;1.95;;
28766;SDS011;15921;52.034;20.650;2023-04-03T03:59:41;6.43;;;1.65;;
28766;SDS011;15921;52.034;20.650;2023-04-03T04:02:08;4.30;;;1.90;;
28766;SDS011;15921;52.034;20.650;2023-04-03T04:04:35;5.85;;;1.83;;
28766;SDS011;15921;52.034;20.650;2023-04-03T04:07:01;8.98;;;1.98;;
28766;SDS011;15921;52.034;20.650;2023-04-03T04:09:27;8.98;;;2.80;;
28766;SDS011;15921;52.034;20.650;2023-04-03T04:11:53;7.03;;;2.70;;
28766;SDS011;15921;52.034;20.650;2023-04-03T04:14:19;8.52;;;3.25;;
28766;SDS011;15921;52.034;20.650;2023-04-03T04:16:48;7.85;;;2.70;;
28766;SDS011;15921;52.034;20.650;2023-04-03T04:19:14;8.55;;;2.63;;
28766;SDS011;15921;52.034;20.650;2023-04-03T04:21:40;9.35;;;3.40;;
28766;SDS011;15921;52.034;20.650;2023-04-03T04:24:06;10.95;;;3.55;;
28766;SDS011;15921;52.034;20.650;2023-04-03T04:26:33;13.43;;;4.00;;
28766;SDS011;15921;52.034;20.650;2023-04-03T04:28:59;5.85;;;2.88;;
28766;SDS011;15921;52.034;20.650;2023-04-03T04:31:25;10.05;;;3.58;;
28766;SDS011;15921;52.034;20.650;2023-04-03T04:33:51;9.30;;;3.30;;
28766;SDS011;15921;52.034;20.650;2023-04-03T04:36:17;9.65;;;2.92;;
28766;SDS011;15921;52.034;20.650;2023-04-03T04:38:43;7.97;;;2.58;;
28766;SDS011;15921;52.034;20.650;2023-04-03T04:41:09;6.25;;;2.20;;
28766;SDS011;15921;52.034;20.650;2023-04-03T04:43:35;10.05;;;2.63;;
28766;SDS011;15921;52.034;20.650;2023-04-03T04:46:02;13.23;;;3.03;;
28766;SDS011;15921;52.034;20.650;2023-04-03T04:48:36;10.27;;;3.67;;
28766;SDS011;15921;52.034;20.650;2023-04-03T04:51:02;11.00;;;2.47;;
28766;SDS011;15921;52.034;20.650;2023-04-03T04:53:28;4.93;;;2.15;;
28766;SDS011;15921;52.034;20.650;2023-04-03T04:55:54;8.02;;;2.50;;
28766;SDS011;15921;52.034;20.650;2023-04-03T04:58:20;7.30;;;2.25;;
28766;SDS011;15921;52.034;20.650;2023-04-03T05:00:45;4.47;;;1.98;;
28766;SDS011;15921;52.034;20.650;2023-04-03T05:03:11;3.88;;;1.80;;
28766;SDS011;15921;52.034;20.650;2023-04-03T05:05:37;6.55;;;1.98;;
28766;SDS011;15921;52.034;20.650;2023-04-03T05:08:03;10.70;;;3.17;;
28766;SDS011;15921;52.034;20.650;2023-04-03T05:10:29;8.65;;;2.72;;
28766;SDS011;15921;52.034;20.650;2023-04-03T05:12:55;8.35;;;2.17;;
28766;SDS011;15921;52.034;20.650;2023-04-03T05:15:21;6.70;;;2.28;;
28766;SDS011;15921;52.034;20.650;2023-04-03T05:17:46;6.38;;;2.30;;
28766;SDS011;15921;52.034;20.650;2023-04-03T05:20:12;7.07;;;2.72;;
28766;SDS011;15921;52.034;20.650;2023-04-03T05:22:38;8.52;;;2.03;;
28766;SDS011;15921;52.034;20.650;2023-04-03T05:25:04;4.88;;;2.05;;
28766;SDS011;15921;52.034;20.650;2023-04-03T05:27:30;7.97;;;2.15;;
28766;SDS011;15921;52.034;20.650;2023-04-03T05:29:56;4.00;;;1.80;;
28766;SDS011;15921;52.034;20.650;2023-04-03T05:32:23;6.75;;;2.30;;
28766;SDS011;15921;52.034;20.650;2023-04-03T05:34:50;10.60;;;2.65;;
28766;SDS011;15921;52.034;20.650;2023-04-03T05:37:15;12.13;;;2.47;;
28766;SDS011;15921;52.034;20.650;2023-04-03T05:39:41;6.88;;;2.00;;
28766;SDS011;15921;52.034;20.650;2023-04-03T05:42:07;4.63;;;1.90;;
28766;SDS011;15921;52.034;20.650;2023-04-03T05:44:33;9.88;;;1.88;;
28766;SDS011;15921;52.034;20.650;2023-04-03T05:46:58;6.15;;;2.10;;
28766;SDS011;15921;52.034;20.650;2023-04-03T05:49:24;6.93;;;2.05;;
28766;SDS011;15921;52.034;20.650;2023-04-03T05:51:50;5.53;;;1.80;;
28766;SDS011;15921;52.034;20.650;2023-04-03T05:54:29;7.22;;;1.70;;
28766;SDS011;15921;52.034;20.650;2023-04-03T05:56:55;5.72;;;2.03;;
28766;SDS011;15921;52.034;20.650;2023-04-03T05:59:20;8.85;;;1.77;;
28766;SDS011;15921;52.034;20.650;2023-04-03T06:01:46;6.40;;;2.10;;
28766;SDS011;15921;52.034;20.650;2023-04-03T06:04:13;5.57;;;2.05;;
28766;SDS011;15921;52.034;20.650;2023-04-03T06:06:49;6.28;;;2.10;;
28766;SDS011;15921;52.034;20.650;2023-04-03T06:09:17;8.20;;;1.92;;
28766;SDS011;15921;52.034;20.650;2023-04-03T06:11:44;6.25;;;1.77;;
28766;SDS011;15921;52.034;20.650;2023-04-03T06:14:11;4.18;;;1.88;;
28766;SDS011;15921;52.034;20.650;2023-04-03T06:16:37;5.53;;;1.90;;
28766;SDS011;15921;52.034;20.650;2023-04-03T06:19:04;7.15;;;2.03;;
28766;SDS011;15921;52.034;20.650;2023-04-03T06:21:31;5.22;;;1.80;;
28766;SDS011;15921;52.034;20.650;2023-04-03T06:23:57;4.03;;;1.70;;
28766;SDS011;15921;52.034;20.650;2023-04-03T06:26:22;4.10;;;1.95;;
28766;SDS011;15921;52.034;20.650;2023-04-03T06:28:48;4.90;;;1.63;;
28766;SDS011;15921;52.034;20.650;2023-04-03T06:31:14;7.38;;;1.67;;
28766;SDS011;15921;52.034;20.650;2023-04-03T06:33:40;3.78;;;1.50;;
28766;SDS011;15921;52.034;20.650;2023-04-03T06:36:06;6.68;;;1.90;;
28766;SDS011;15921;52.034;20.650;2023-04-03T06:38:33;7.13;;;2.17;;
28766;SDS011;15921;52.034;20.650;2023-04-03T06:40:59;3.75;;;1.80;;
28766;SDS011;15921;52.034;20.650;2023-04-03T06:43:25;10.23;;;1.85;;
28766;SDS011;15921;52.034;20.650;2023-04-03T06:45:51;12.63;;;2.03;;
28766;SDS011;15921;52.034;20.650;2023-04-03T06:48:17;8.60;;;2.08;;
28766;SDS011;15921;52.034;20.650;2023-04-03T06:50:43;4.72;;;1.92;;
28766;SDS011;15921;52.034;20.650;2023-04-03T06:53:09;4.53;;;1.90;;
28766;SDS011;15921;52.034;20.650;2023-04-03T06:55:34;5.63;;;2.35;;
28766;SDS011;15921;52.034;20.650;2023-04-03T06:58:01;3.78;;;1.60;;
28766;SDS011;15921;52.034;20.650;2023-04-03T07:00:27;4.30;;;1.90;;
28766;SDS011;15921;52.034;20.650;2023-04-03T07:02:53;7.53;;;1.85;;
28766;SDS011;15921;52.034;20.650;2023-04-03T07:05:19;11.10;;;4.13;;
28766;SDS011;15921;52.034;20.650;2023-04-03T07:07:44;5.70;;;3.03;;
28766;SDS011;15921;52.034;20.650;2023-04-03T07:10:10;6.45;;;2.03;;
28766;SDS011;15921;52.034;20.650;2023-04-03T07:12:36;4.47;;;1.77;;
28766;SDS011;15921;52.034;20.650;2023-04-03T07:15:03;6.78;;;2.05;;
28766;SDS011;15921;52.034;20.650;2023-04-03T07:17:30;6.20;;;1.83;;
28766;SDS011;15921;52.034;20.650;2023-04-03T07:19:56;5.00;;;2.42;;
28766;SDS011;15921;52.034;20.650;2023-04-03T07:22:21;5.72;;;2.00;;
28766;SDS011;15921;52.034;20.650;2023-04-03T07:24:47;5.13;;;2.10;;
28766;SDS011;15921;52.034;20.650;2023-04-03T07:27:13;5.88;;;2.22;;
28766;SDS011;15921;52.034;20.650;2023-04-03T07:29:39;7.30;;;2.38;;
28766;SDS011;15921;52.034;20.650;2023-04-03T07:32:05;6.88;;;2.08;;
28766;SDS011;15921;52.034;20.650;2023-04-03T07:34:31;10.13;;;2.38;;
28766;SDS011;15921;52.034;20.650;2023-04-03T07:36:58;4.43;;;1.70;;
28766;SDS011;15921;52.034;20.650;2023-04-03T07:39:24;8.27;;;2.25;;
28766;SDS011;15921;52.034;20.650;2023-04-03T07:41:49;10.98;;;2.67;;
28766;SDS011;15921;52.034;20.650;2023-04-03T07:44:16;9.95;;;2.42;;
28766;SDS011;15921;52.034;20.650;2023-04-03T07:46:42;6.75;;;2.30;;
28766;SDS011;15921;52.034;20.650;2023-04-03T07:49:08;4.57;;;2.00;;
28766;SDS011;15921;52.034;20.650;2023-04-03T07:51:34;4.55;;;2.15;;
28766;SDS011;15921;52.034;20.650;2023-04-03T07:54:01;5.65;;;1.95;;
28766;SDS011;15921;52.034;20.650;2023-04-03T07:56:27;6.13;;;1.70;;
28766;SDS011;15921;52.034;20.650;2023-04-03T07:58:52;6.15;;;2.25;;
28766;SDS011;15921;52.034;20.650;2023-04-03T08:01:18;4.35;;;1.77;;
28766;SDS011;15921;52.034;20.650;2023-04-03T08:03:44;5.60;;;2.03;;
28766;SDS011;15921;52.034;20.650;2023-04-03T08:06:10;8.10;;;2.67;;
28766;SDS011;15921;52.034;20.650;2023-04-03T08:08:35;5.07;;;1.70;;
28766;SDS011;15921;52.034;20.650;2023-04-03T08:11:02;7.85;;;2.20;;
28766;SDS011;15921;52.034;20.650;2023-04-03T08:13:30;4.10;;;1.83;;
28766;SDS011;15921;52.034;20.650;2023-04-03T08:15:56;8.23;;;2.03;;
28766;SDS011;15921;52.034;20.650;2023-04-03T08:18:24;5.93;;;1.80;;
28766;SDS011;15921;52.034;20.650;2023-04-03T08:20:51;5.05;;;2.15;;
28766;SDS011;15921;52.034;20.650;2023-04-03T08:23:17;4.18;;;1.70;;
28766;SDS011;15921;52.034;20.650;2023-04-03T08:25:44;7.13;;;2.20;;
28766;SDS011;15921;52.034;20.650;2023-04-03T08:28:10;6.07;;;2.15;;
28766;SDS011;15921;52.034;20.650;2023-04-03T08:30:38;3.60;;;1.40;;
28766;SDS011;15921;52.034;20.650;2023-04-03T08:33:05;7.43;;;1.85;;
28766;SDS011;15921;52.034;20.650;2023-04-03T08:35:31;6.00;;;1.60;;
28766;SDS011;15921;52.034;20.650;2023-04-03T08:37:57;9.25;;;2.15;;
28766;SDS011;15921;52.034;20.650;2023-04-03T08:40:22;6.05;;;2.25;;
28766;SDS011;15921;52.034;20.650;2023-04-03T08:48:35;5.72;;;2.13;;
28766;SDS011;15921;52.034;20.650;2023-04-03T08:51:10;6.05;;;1.88;;
28766;SDS011;15921;52.034;20.650;2023-04-03T08:53:43;6.30;;;1.77;;
28766;SDS011;15921;52.034;20.650;2023-04-03T08:56:14;6.43;;;1.67;;
28766;SDS011;15921;52.034;20.650;2023-04-03T08:58:50;5.85;;;1.90;;
28766;SDS011;15921;52.034;20.650;2023-04-03T09:01:23;4.57;;;2.10;;
28766;SDS011;15921;52.034;20.650;2023-04-03T09:03:58;4.03;;;1.73;;
28766;SDS011;15921;52.034;20.650;2023-04-03T09:06:27;8.07;;;2.70;;
28766;SDS011;15921;52.034;20.650;2023-04-03T09:12:20;8.20;;;2.92;;
28766;SDS011;15921;52.034;20.650;2023-04-03T09:17:31;3.08;;;1.50;;
28766;SDS011;15921;52.034;20.650;2023-04-03T09:22:34;3.63;;;1.50;;
28766;SDS011;15921;52.034;20.650;2023-04-03T09:25:13;2.67;;;1.50;;
28766;SDS011;15921;52.034;20.650;2023-04-03T09:27:45;6.95;;;1.75;;
28766;SDS011;15921;52.034;20.650;2023-04-03T09:30:18;6.18;;;1.70;;
28766;SDS011;15921;52.034;20.650;2023-04-03T09:32:49;6.07;;;1.70;;
28766;SDS011;15921;52.034;20.650;2023-04-03T09:35:21;5.05;;;1.77;;
28766;SDS011;15921;52.034;20.650;2023-04-03T09:37:48;4.40;;;1.65;;
28766;SDS011;15921;52.034;20.650;2023-04-03T09:42:52;3.50;;;1.73;;
28766;SDS011;15921;52.034;20.650;2023-04-03T09:45:23;6.65;;;2.00;;
28766;SDS011;15921;52.034;20.650;2023-04-03T09:50:38;5.40;;;1.50;;
28766;SDS011;15921;52.034;20.650;2023-04-03T09:56:25;3.67;;;1.70;;
28766;SDS011;15921;52.034;20.650;2023-04-03T10:01:33;4.07;;;1.75;;
28766;SDS011;15921;52.034;20.650;2023-04-03T10:12:20;6.97;;;2.70;;
28766;SDS011;15921;52.034;20.650;2023-04-03T10:31:01;2.72;;;1.40;;
28766;SDS011;15921;52.034;20.650;2023-04-03T10:36:14;6.88;;;1.88;;
28766;SDS011;15921;52.034;20.650;2023-04-03T10:39:25;3.22;;;1.80;;
28766;SDS011;15921;52.034;20.650;2023-04-03T10:42:02;4.78;;;1.50;;
28766;SDS011;15921;52.034;20.650;2023-04-03T10:44:47;6.80;;;1.80;;
28766;SDS011;15921;52.034;20.650;2023-04-03T10:52:56;2.60;;;1.17;;
28766;SDS011;15921;52.034;20.650;2023-04-03T10:55:38;3.50;;;1.65;;
28766;SDS011;15921;52.034;20.650;2023-04-03T11:01:09;3.40;;;1.55;;
28766;SDS011;15921;52.034;20.650;2023-04-03T11:03:39;3.35;;;1.70;;
28766;SDS011;15921;52.034;20.650;2023-04-03T11:06:12;5.75;;;1.52;;
28766;SDS011;15921;52.034;20.650;2023-04-03T11:08:45;2.20;;;1.55;;
28766;SDS011;15921;52.034;20.650;2023-04-03T11:11:30;2.30;;;1.40;;
28766;SDS011;15921;52.034;20.650;2023-04-03T11:14:01;5.43;;;1.30;;
28766;SDS011;15921;52.034;20.650;2023-04-03T11:16:42;2.65;;;1.58;;
28766;SDS011;15921;52.034;20.650;2023-04-03T11:19:14;3.53;;;1.50;;
28766;SDS011;15921;52.034;20.650;2023-04-03T11:24:46;5.10;;;1.40;;
28766;SDS011;15921;52.034;20.650;2023-04-03T11:27:59;2.85;;;1.40;;
28766;SDS011;15921;52.034;20.650;2023-04-03T11:30:48;3.03;;;1.70;;
28766;SDS011;15921;52.034;20.650;2023-04-03T11:36:24;3.00;;;1.73;;
28766;SDS011;15921;52.034;20.650;2023-04-03T11:38:55;2.83;;;1.70;;
28766;SDS011;15921;52.034;20.650;2023-04-03T11:41:28;2.83;;;1.67;;
28766;SDS011;15921;52.034;20.650;2023-04-03T11:46:23;3.03;;;1.30;;
28766;SDS011;15921;52.034;20.650;2023-04-03T11:55:34;2.85;;;1.38;;
28766;SDS011;15921;52.034;20.650;2023-04-03T12:16:08;2.90;;;1.30;;
28766;SDS011;15921;52.034;20.650;2023-04-03T12:18:59;3.47;;;1.27;;
28766;SDS011;15921;52.034;20.650;2023-04-03T12:35:05;2.22;;;1.50;;
28766;SDS011;15921;52.034;20.650;2023-04-03T12:37:40;5.45;;;2.10;;
28766;SDS011;15921;52.034;20.650;2023-04-03T12:43:39;4.32;;;1.70;;
28766;SDS011;15921;52.034;20.650;2023-04-03T12:48:47;4.55;;;1.23;;
28766;SDS011;15921;52.034;20.650;2023-04-03T12:51:20;1.50;;;1.00;;
28766;SDS011;15921;52.034;20.650;2023-04-03T12:54:04;5.80;;;1.38;;
28766;SDS011;15921;52.034;20.650;2023-04-03T12:56:38;6.22;;;1.27;;
28766;SDS011;15921;52.034;20.650;2023-04-03T12:59:14;4.55;;;1.27;;
28766;SDS011;15921;52.034;20.650;2023-04-03T13:02:00;4.28;;;1.10;;
28766;SDS011;15921;52.034;20.650;2023-04-03T13:04:27;3.08;;;1.40;;
28766;SDS011;15921;52.034;20.650;2023-04-03T13:06:54;1.92;;;1.10;;
28766;SDS011;15921;52.034;20.650;2023-04-03T13:11:46;2.70;;;1.35;;
28766;SDS011;15921;52.034;20.650;2023-04-03T13:14:16;1.98;;;1.00;;
28766;SDS011;15921;52.034;20.650;2023-04-03T13:16:52;3.70;;;1.00;;
28766;SDS011;15921;52.034;20.650;2023-04-03T13:19:19;4.07;;;1.02;;
28766;SDS011;15921;52.034;20.650;2023-04-03T13:21:45;2.15;;;0.85;;
28766;SDS011;15921;52.034;20.650;2023-04-03T13:24:11;2.30;;;1.10;;
28766;SDS011;15921;52.034;20.650;2023-04-03T13:26:38;4.57;;;2.03;;
28766;SDS011;15921;52.034;20.650;2023-04-03T13:29:06;2.47;;;1.20;;
28766;SDS011;15921;52.034;20.650;2023-04-03T13:31:42;4.55;;;1.60;;
28766;SDS011;15921;52.034;20.650;2023-04-03T13:34:12;4.18;;;1.90;;
28766;SDS011;15921;52.034;20.650;2023-04-03T13:39:30;3.58;;;1.27;;
28766;SDS011;15921;52.034;20.650;2023-04-03T13:42:15;2.83;;;1.35;;
28766;SDS011;15921;52.034;20.650;2023-04-03T13:44:46;5.20;;;1.45;;
28766;SDS011;15921;52.034;20.650;2023-04-03T13:49:58;3.15;;;1.55;;
28766;SDS011;15921;52.034;20.650;2023-04-03T13:52:48;4.53;;;1.45;;
28766;SDS011;15921;52.034;20.650;2023-04-03T13:57:57;6.00;;;1.10;;
28766;SDS011;15921;52.034;20.650;2023-04-03T14:03:00;2.13;;;1.33;;
28766;SDS011;15921;52.034;20.650;2023-04-03T14:05:25;2.90;;;1.20;;
28766;SDS011;15921;52.034;20.650;2023-04-03T14:07:52;2.53;;;1.42;;
28766;SDS011;15921;52.034;20.650;2023-04-03T14:10:19;2.35;;;1.10;;
28766;SDS011;15921;52.034;20.650;2023-04-03T14:12:46;1.98;;;1.00;;
28766;SDS011;15921;52.034;20.650;2023-04-03T14:15:33;3.33;;;1.42;;
28766;SDS011;15921;52.034;20.650;2023-04-03T14:17:58;4.47;;;1.17;;
28766;SDS011;15921;52.034;20.650;2023-04-03T14:20:25;3.90;;;1.92;;
28766;SDS011;15921;52.034;20.650;2023-04-03T14:22:51;4.10;;;1.77;;
28766;SDS011;15921;52.034;20.650;2023-04-03T14:25:19;5.78;;;1.90;;
28766;SDS011;15921;52.034;20.650;2023-04-03T14:27:48;5.97;;;1.75;;
28766;SDS011;15921;52.034;20.650;2023-04-03T14:32:52;5.75;;;1.50;;
28766;SDS011;15921;52.034;20.650;2023-04-03T14:35:18;3.70;;;1.63;;
28766;SDS011;15921;52.034;20.650;2023-04-03T14:37:45;4.95;;;1.38;;
28766;SDS011;15921;52.034;20.650;2023-04-03T14:40:17;3.72;;;1.70;;
28766;SDS011;15921;52.034;20.650;2023-04-03T14:42:49;9.90;;;2.13;;
28766;SDS011;15921;52.034;20.650;2023-04-03T14:45:15;3.50;;;1.50;;
28766;SDS011;15921;52.034;20.650;2023-04-03T14:47:50;4.38;;;1.35;;
28766;SDS011;15921;52.034;20.650;2023-04-03T14:50:19;4.88;;;1.75;;
28766;SDS011;15921;52.034;20.650;2023-04-03T14:52:47;2.35;;;1.55;;
28766;SDS011;15921;52.034;20.650;2023-04-03T14:55:14;3.58;;;1.10;;
28766;SDS011;15921;52.034;20.650;2023-04-03T14:57:41;3.03;;;1.30;;
28766;SDS011;15921;52.034;20.650;2023-04-03T15:00:10;4.10;;;1.60;;
28766;SDS011;15921;52.034;20.650;2023-04-03T15:02:39;5.15;;;1.50;;
28766;SDS011;15921;52.034;20.650;2023-04-03T15:05:06;6.18;;;1.90;;
28766;SDS011;15921;52.034;20.650;2023-04-03T15:07:34;4.28;;;2.00;;
28766;SDS011;15921;52.034;20.650;2023-04-03T15:10:05;2.90;;;1.45;;
28766;SDS011;15921;52.034;20.650;2023-04-03T15:12:43;4.88;;;1.77;;
28766;SDS011;15921;52.034;20.650;2023-04-03T15:15:10;7.07;;;2.15;;
28766;SDS011;15921;52.034;20.650;2023-04-03T15:17:36;4.60;;;1.90;;
28766;SDS011;15921;52.034;20.650;2023-04-03T15:20:02;6.10;;;1.95;;
28766;SDS011;15921;52.034;20.650;2023-04-03T15:22:35;6.85;;;2.47;;
28766;SDS011;15921;52.034;20.650;2023-04-03T15:25:01;7.40;;;3.00;;
28766;SDS011;15921;52.034;20.650;2023-04-03T15:27:27;5.25;;;2.22;;
28766;SDS011;15921;52.034;20.650;2023-04-03T15:29:53;7.93;;;3.30;;
28766;SDS011;15921;52.034;20.650;2023-04-03T15:32:19;7.90;;;2.55;;
28766;SDS011;15921;52.034;20.650;2023-04-03T15:34:45;5.80;;;2.15;;
28766;SDS011;15921;52.034;20.650;2023-04-03T15:37:11;10.32;;;2.40;;
28766;SDS011;15921;52.034;20.650;2023-04-03T15:39:36;4.00;;;2.15;;
28766;SDS011;15921;52.034;20.650;2023-04-03T15:42:02;5.60;;;2.53;;
28766;SDS011;15921;52.034;20.650;2023-04-03T15:44:31;4.90;;;2.13;;
28766;SDS011;15921;52.034;20.650;2023-04-03T15:46:59;3.67;;;2.15;;
28766;SDS011;15921;52.034;20.650;2023-04-03T15:49:25;4.75;;;1.80;;
28766;SDS011;15921;52.034;20.650;2023-04-03T15:51:51;4.93;;;1.80;;
28766;SDS011;15921;52.034;20.650;2023-04-03T15:54:17;7.00;;;1.98;;
28766;SDS011;15921;52.034;20.650;2023-04-03T15:56:43;4.32;;;2.13;;
28766;SDS011;15921;52.034;20.650;2023-04-03T15:59:09;5.32;;;2.25;;
28766;SDS011;15921;52.034;20.650;2023-04-03T16:01:36;9.32;;;3.78;;
28766;SDS011;15921;52.034;20.650;2023-04-03T16:04:04;5.63;;;2.33;;
28766;SDS011;15921;52.034;20.650;2023-04-03T16:06:32;5.55;;;2.17;;
28766;SDS011;15921;52.034;20.650;2023-04-03T16:08:59;4.05;;;2.05;;
28766;SDS011;15921;52.034;20.650;2023-04-03T16:11:25;9.73;;;3.13;;
28766;SDS011;15921;52.034;20.650;2023-04-03T16:13:51;6.10;;;2.60;;
28766;SDS011;15921;52.034;20.650;2023-04-03T16:16:17;11.10;;;2.38;;
28766;SDS011;15921;52.034;20.650;2023-04-03T16:18:43;5.28;;;2.45;;
28766;SDS011;15921;52.034;20.650;2023-04-03T16:21:09;5.25;;;2.60;;
28766;SDS011;15921;52.034;20.650;2023-04-03T16:23:35;6.70;;;2.30;;
28766;SDS011;15921;52.034;20.650;2023-04-03T16:26:01;7.32;;;2.47;;
28766;SDS011;15921;52.034;20.650;2023-04-03T16:28:26;3.45;;;2.17;;
28766;SDS011;15921;52.034;20.650;2023-04-03T16:30:52;8.02;;;3.47;;
28766;SDS011;15921;52.034;20.650;2023-04-03T16:33:18;11.38;;;4.50;;
28766;SDS011;15921;52.034;20.650;2023-04-03T16:35:46;9.82;;;3.20;;
28766;SDS011;15921;52.034;20.650;2023-04-03T16:38:13;8.52;;;3.20;;
28766;SDS011;15921;52.034;20.650;2023-04-03T16:40:40;14.50;;;6.30;;
28766;SDS011;15921;52.034;20.650;2023-04-03T16:43:06;7.72;;;3.13;;
28766;SDS011;15921;52.034;20.650;2023-04-03T16:45:31;7.10;;;3.47;;
28766;SDS011;15921;52.034;20.650;2023-04-03T16:47:57;4.57;;;2.50;;
28766;SDS011;15921;52.034;20.650;2023-04-03T16:50:23;7.43;;;4.22;;
28766;SDS011;15921;52.034;20.650;2023-04-03T16:52:48;8.45;;;5.20;;
28766;SDS011;15921;52.034;20.650;2023-04-03T16:55:14;7.72;;;3.75;;